sensor_id;sensor_type;location;lat;lon;timestamp;pressure;altitude;pressure_sealevel;temperature;humidity
53647;BME280;39550;52.230;5.194;2023-06-04T00:00:42;102181.78;;;17.07;52.97
53647;BME280;39550;52.230;5.194;2023-06-04T00:03:08;102174.84;;;17.06;52.92
53647;BME280;39550;52.230;5.194;2023-06-04T00:05:33;102175.72;;;17.05;53.62
53647;BME280;39550;52.230;5.194;2023-06-04T00:07:59;102176.56;;;17.04;53.23
53647;BME280;39550;52.230;5.194;2023-06-04T00:10:24;102169.63;;;17.02;52.97
53647;BME280;39550;52.230;5.194;2023-06-04T00:12:50;102171.38;;;17.00;53.75
53647;BME280;39550;52.230;5.194;2023-06-04T00:15:15;102180.03;;;17.01;53.00
53647;BME280;39550;52.230;5.194;2023-06-04T00:17:42;102172.22;;;16.99;53.68
53647;BME280;39550;52.230;5.194;2023-06-04T00:20:08;102176.56;;;16.99;52.92
53647;BME280;39550;52.230;5.194;2023-06-04T00:22:33;102176.53;;;16.97;53.25
53647;BME280;39550;52.230;5.194;2023-06-04T00:24:59;102185.25;;;16.96;53.28
53647;BME280;39550;52.230;5.194;2023-06-04T00:27:24;102181.75;;;16.96;53.90
53647;BME280;39550;52.230;5.194;2023-06-04T00:29:49;102160.91;;;16.94;54.13
53647;BME280;39550;52.230;5.194;2023-06-04T00:32:15;102177.41;;;16.93;53.97
53647;BME280;39550;52.230;5.194;2023-06-04T00:34:40;102174.78;;;16.93;53.50
53647;BME280;39550;52.230;5.194;2023-06-04T00:37:05;102174.78;;;16.93;53.80
53647;BME280;39550;52.230;5.194;2023-06-04T00:39:31;102176.53;;;16.91;53.44
53647;BME280;39550;52.230;5.194;2023-06-04T00:41:57;102176.53;;;16.90;53.70
53647;BME280;39550;52.230;5.194;2023-06-04T00:44:22;102173.00;;;16.86;53.87
53647;BME280;39550;52.230;5.194;2023-06-04T00:46:50;102174.75;;;16.87;53.51
53647;BME280;39550;52.230;5.194;2023-06-04T00:49:16;102180.81;;;16.88;53.98
53647;BME280;39550;52.230;5.194;2023-06-04T00:51:41;102173.00;;;16.86;54.41
53647;BME280;39550;52.230;5.194;2023-06-04T00:54:07;102171.28;;;16.85;54.15
53647;BME280;39550;52.230;5.194;2023-06-04T00:56:37;102176.47;;;16.82;54.02
53647;BME280;39550;52.230;5.194;2023-06-04T00:59:04;102176.47;;;16.82;53.58
53647;BME280;39550;52.230;5.194;2023-06-04T01:01:59;102178.22;;;16.80;53.89
53647;BME280;39550;52.230;5.194;2023-06-04T01:07:07;102174.72;;;16.76;54.00
53647;BME280;39550;52.230;5.194;2023-06-04T01:09:35;102172.97;;;16.74;53.94
53647;BME280;39550;52.230;5.194;2023-06-04T01:12:04;102175.56;;;16.72;53.49
53647;BME280;39550;52.230;5.194;2023-06-04T01:14:29;102178.16;;;16.71;54.19
53647;BME280;39550;52.230;5.194;2023-06-04T01:17:00;102171.22;;;16.66;54.19
53647;BME280;39550;52.230;5.194;2023-06-04T01:20:22;102180.78;;;16.69;54.50
53647;BME280;39550;52.230;5.194;2023-06-04T01:22:55;102168.63;;;16.68;54.24
53647;BME280;39550;52.230;5.194;2023-06-04T01:25:32;102178.16;;;16.67;53.96
53647;BME280;39550;52.230;5.194;2023-06-04T01:27:59;102175.56;;;16.64;54.24
53647;BME280;39550;52.230;5.194;2023-06-04T01:30:31;102174.66;;;16.65;53.92
53647;BME280;39550;52.230;5.194;2023-06-04T01:32:58;102172.97;;;16.64;54.69
53647;BME280;39550;52.230;5.194;2023-06-04T01:35:25;102173.81;;;16.63;54.24
53647;BME280;39550;52.230;5.194;2023-06-04T01:37:51;102181.63;;;16.63;54.04
53647;BME280;39550;52.230;5.194;2023-06-04T01:40:17;102181.63;;;16.62;53.92
53647;BME280;39550;52.230;5.194;2023-06-04T01:42:42;102182.47;;;16.59;54.86
53647;BME280;39550;52.230;5.194;2023-06-04T01:45:09;102179.88;;;16.59;54.61
53647;BME280;39550;52.230;5.194;2023-06-04T01:47:34;102178.13;;;16.58;54.61
53647;BME280;39550;52.230;5.194;2023-06-04T01:50:01;102172.06;;;16.56;54.40
53647;BME280;39550;52.230;5.194;2023-06-04T01:52:26;102173.75;;;16.54;54.44
53647;BME280;39550;52.230;5.194;2023-06-04T01:54:52;102172.00;;;16.51;54.61
53647;BME280;39550;52.230;5.194;2023-06-04T01:57:18;102176.38;;;16.51;54.27
53647;BME280;39550;52.230;5.194;2023-06-04T01:59:44;102174.63;;;16.50;54.09
53647;BME280;39550;52.230;5.194;2023-06-04T02:02:10;102172.00;;;16.50;53.98
53647;BME280;39550;52.230;5.194;2023-06-04T02:04:35;102174.63;;;16.48;54.09
53647;BME280;39550;52.230;5.194;2023-06-04T02:07:02;102168.53;;;16.46;54.61
53647;BME280;39550;52.230;5.194;2023-06-04T02:09:27;102178.06;;;16.46;54.71
53647;BME280;39550;52.230;5.194;2023-06-04T02:11:52;102178.06;;;16.46;54.76
53647;BME280;39550;52.230;5.194;2023-06-04T02:14:18;102181.56;;;16.45;54.63
53647;BME280;39550;52.230;5.194;2023-06-04T02:16:43;102174.59;;;16.44;54.24
53647;BME280;39550;52.230;5.194;2023-06-04T02:19:08;102172.84;;;16.43;54.59
53647;BME280;39550;52.230;5.194;2023-06-04T02:21:34;102178.06;;;16.41;54.84
53647;BME280;39550;52.230;5.194;2023-06-04T02:24:00;102173.69;;;16.40;54.11
53647;BME280;39550;52.230;5.194;2023-06-04T02:26:25;102172.84;;;16.40;54.98
53647;BME280;39550;52.230;5.194;2023-06-04T02:28:51;102177.16;;;16.38;54.73
53647;BME280;39550;52.230;5.194;2023-06-04T02:31:16;102176.28;;;16.36;54.29
53647;BME280;39550;52.230;5.194;2023-06-04T02:33:42;102181.50;;;16.36;54.95
53647;BME280;39550;52.230;5.194;2023-06-04T02:36:08;102178.00;;;16.33;54.64
53647;BME280;39550;52.230;5.194;2023-06-04T02:38:34;102181.47;;;16.32;54.53
53647;BME280;39550;52.230;5.194;2023-06-04T02:41:00;102178.84;;;16.29;54.47
53647;BME280;39550;52.230;5.194;2023-06-04T02:43:25;102182.31;;;16.28;54.63
53647;BME280;39550;52.230;5.194;2023-06-04T02:45:50;102177.97;;;16.27;54.81
53647;BME280;39550;52.230;5.194;2023-06-04T02:48:16;102182.28;;;16.27;54.36
53647;BME280;39550;52.230;5.194;2023-06-04T02:50:41;102177.09;;;16.25;55.15
53647;BME280;39550;52.230;5.194;2023-06-04T02:53:07;102175.38;;;16.24;54.36
53647;BME280;39550;52.230;5.194;2023-06-04T02:55:33;102170.16;;;16.24;54.13
53647;BME280;39550;52.230;5.194;2023-06-04T02:57:59;102172.78;;;16.24;54.71
53647;BME280;39550;52.230;5.194;2023-06-04T03:00:25;102177.97;;;16.24;54.53
53647;BME280;39550;52.230;5.194;2023-06-04T03:02:51;102181.41;;;16.22;54.78
53647;BME280;39550;52.230;5.194;2023-06-04T03:05:17;102177.94;;;16.21;53.84
53647;BME280;39550;52.230;5.194;2023-06-04T03:07:44;102177.91;;;16.18;54.35
53647;BME280;39550;52.230;5.194;2023-06-04T03:10:11;102184.88;;;16.19;54.10
53647;BME280;39550;52.230;5.194;2023-06-04T03:12:37;102177.06;;;16.17;54.60
53647;BME280;39550;52.230;5.194;2023-06-04T03:15:03;102178.78;;;16.17;55.01
53647;BME280;39550;52.230;5.194;2023-06-04T03:17:29;102173.56;;;16.14;54.28
53647;BME280;39550;52.230;5.194;2023-06-04T03:19:56;102164.00;;;16.10;54.75
53647;BME280;39550;52.230;5.194;2023-06-04T03:22:22;102167.50;;;16.12;54.27
53647;BME280;39550;52.230;5.194;2023-06-04T03:24:47;102173.53;;;16.11;54.72
53647;BME280;39550;52.230;5.194;2023-06-04T03:27:13;102176.16;;;16.11;54.92
53647;BME280;39550;52.230;5.194;2023-06-04T03:29:38;102170.88;;;16.05;55.00
53647;BME280;39550;52.230;5.194;2023-06-04T03:32:04;102167.44;;;16.09;55.32
53647;BME280;39550;52.230;5.194;2023-06-04T03:34:29;102177.84;;;16.06;54.62
53647;BME280;39550;52.230;5.194;2023-06-04T03:36:58;102173.47;;;16.03;54.03
53647;BME280;39550;52.230;5.194;2023-06-04T03:39:24;102176.06;;;16.02;54.59
53647;BME280;39550;52.230;5.194;2023-06-04T03:41:50;102175.22;;;16.01;55.10
53647;BME280;39550;52.230;5.194;2023-06-04T03:44:16;102165.66;;;15.98;53.91
53647;BME280;39550;52.230;5.194;2023-06-04T03:46:43;102177.81;;;15.99;54.16
53647;BME280;39550;52.230;5.194;2023-06-04T03:49:09;102177.81;;;15.99;54.76
53647;BME280;39550;52.230;5.194;2023-06-04T03:51:35;102176.91;;;15.99;54.73
53647;BME280;39550;52.230;5.194;2023-06-04T03:54:01;102161.28;;;15.88;54.59
53647;BME280;39550;52.230;5.194;2023-06-04T03:56:27;102176.06;;;15.95;54.93
53647;BME280;39550;52.230;5.194;2023-06-04T03:58:53;102179.50;;;15.94;54.92
53647;BME280;39550;52.230;5.194;2023-06-04T04:01:19;102176.91;;;15.94;54.73
53647;BME280;39550;52.230;5.194;2023-06-04T04:03:45;102173.44;;;15.94;54.85
53647;BME280;39550;52.230;5.194;2023-06-04T04:06:13;102184.69;;;15.94;55.30
53647;BME280;39550;52.230;5.194;2023-06-04T04:08:39;102188.16;;;15.93;54.23
53647;BME280;39550;52.230;5.194;2023-06-04T04:11:08;102175.16;;;15.92;54.43
53647;BME280;39550;52.230;5.194;2023-06-04T04:13:33;102174.28;;;15.91;54.72
53647;BME280;39550;52.230;5.194;2023-06-04T04:15:59;102182.94;;;15.90;54.64
53647;BME280;39550;52.230;5.194;2023-06-04T04:18:24;102181.19;;;15.89;54.69
53647;BME280;39550;52.230;5.194;2023-06-04T04:20:50;102173.38;;;15.88;55.40
53647;BME280;39550;52.230;5.194;2023-06-04T04:23:15;102182.94;;;15.87;54.45
53647;BME280;39550;52.230;5.194;2023-06-04T04:25:42;102181.19;;;15.86;55.17
53647;BME280;39550;52.230;5.194;2023-06-04T04:28:09;102177.72;;;15.84;54.41
53647;BME280;39550;52.230;5.194;2023-06-04T04:30:35;102185.50;;;15.86;55.68
53647;BME280;39550;52.230;5.194;2023-06-04T04:33:01;102170.75;;;15.80;55.54
53647;BME280;39550;52.230;5.194;2023-06-04T04:35:27;102179.41;;;15.82;55.30
53647;BME280;39550;52.230;5.194;2023-06-04T04:37:54;102175.94;;;15.81;54.62
53647;BME280;39550;52.230;5.194;2023-06-04T04:40:19;102183.75;;;15.80;54.87
53647;BME280;39550;52.230;5.194;2023-06-04T04:42:45;102179.38;;;15.79;55.55
53647;BME280;39550;52.230;5.194;2023-06-04T04:45:10;102174.16;;;15.79;55.25
53647;BME280;39550;52.230;5.194;2023-06-04T04:47:36;102173.31;;;15.78;54.85
53647;BME280;39550;52.230;5.194;2023-06-04T04:50:02;102176.75;;;15.79;55.38
53647;BME280;39550;52.230;5.194;2023-06-04T04:52:27;102174.16;;;15.79;54.77
53647;BME280;39550;52.230;5.194;2023-06-04T04:54:53;102173.34;;;15.80;55.36
53647;BME280;39550;52.230;5.194;2023-06-04T04:57:21;102181.16;;;15.83;54.32
53647;BME280;39550;52.230;5.194;2023-06-04T04:59:48;102175.13;;;15.84;54.71
53647;BME280;39550;52.230;5.194;2023-06-04T05:02:13;102187.28;;;15.91;55.00
53647;BME280;39550;52.230;5.194;2023-06-04T05:04:39;102186.47;;;15.98;54.79
53647;BME280;39550;52.230;5.194;2023-06-04T05:07:04;102183.88;;;15.98;55.12
53647;BME280;39550;52.230;5.194;2023-06-04T05:09:30;102186.44;;;15.95;55.41
53647;BME280;39550;52.230;5.194;2023-06-04T05:11:55;102182.94;;;15.90;55.46
53647;BME280;39550;52.230;5.194;2023-06-04T05:14:20;102187.22;;;15.87;55.14
53647;BME280;39550;52.230;5.194;2023-06-04T05:16:46;102188.97;;;15.85;55.23
53647;BME280;39550;52.230;5.194;2023-06-04T05:19:13;102183.69;;;15.78;55.20
53647;BME280;39550;52.230;5.194;2023-06-04T05:21:41;102186.34;;;15.80;55.23
53647;BME280;39550;52.230;5.194;2023-06-04T05:24:07;102182.84;;;15.79;54.55
53647;BME280;39550;52.230;5.194;2023-06-04T05:26:32;102184.56;;;15.79;55.08
53647;BME280;39550;52.230;5.194;2023-06-04T05:28:58;102180.25;;;15.79;55.09
53647;BME280;39550;52.230;5.194;2023-06-04T05:31:24;102181.97;;;15.79;55.17
53647;BME280;39550;52.230;5.194;2023-06-04T05:33:51;102182.00;;;15.80;54.83
53647;BME280;39550;52.230;5.194;2023-06-04T05:36:17;102186.34;;;15.80;55.14
53647;BME280;39550;52.230;5.194;2023-06-04T05:38:42;102177.66;;;15.79;55.20
53647;BME280;39550;52.230;5.194;2023-06-04T05:41:08;102184.56;;;15.79;55.06
53647;BME280;39550;52.230;5.194;2023-06-04T05:43:33;102192.41;;;15.80;55.38
53647;BME280;39550;52.230;5.194;2023-06-04T05:45:58;102186.34;;;15.80;55.33
53647;BME280;39550;52.230;5.194;2023-06-04T05:48:24;102188.94;;;15.80;55.33
53647;BME280;39550;52.230;5.194;2023-06-04T05:50:50;102190.66;;;15.79;55.25
53647;BME280;39550;52.230;5.194;2023-06-04T05:53:15;102193.22;;;15.78;55.31
53647;BME280;39550;52.230;5.194;2023-06-04T05:55:41;102193.22;;;15.78;55.01
53647;BME280;39550;52.230;5.194;2023-06-04T05:58:06;102194.06;;;15.77;55.55
53647;BME280;39550;52.230;5.194;2023-06-04T06:00:32;102194.97;;;15.79;54.70
53647;BME280;39550;52.230;5.194;2023-06-04T06:02:57;102192.34;;;15.77;55.21
53647;BME280;39550;52.230;5.194;2023-06-04T06:05:22;102198.41;;;15.78;55.18
53647;BME280;39550;52.230;5.194;2023-06-04T06:07:48;102193.22;;;15.78;55.16
53647;BME280;39550;52.230;5.194;2023-06-04T06:10:14;102194.06;;;15.77;55.40
53647;BME280;39550;52.230;5.194;2023-06-04T06:12:40;102193.22;;;15.78;55.85
53647;BME280;39550;52.230;5.194;2023-06-04T06:15:06;102192.34;;;15.79;55.46
53647;BME280;39550;52.230;5.194;2023-06-04T06:17:32;102200.16;;;15.79;55.10
53647;BME280;39550;52.230;5.194;2023-06-04T06:19:58;102194.06;;;15.77;55.16
53647;BME280;39550;52.230;5.194;2023-06-04T06:22:23;102201.84;;;15.77;55.70
53647;BME280;39550;52.230;5.194;2023-06-04T06:24:48;102205.34;;;15.76;55.61
53647;BME280;39550;52.230;5.194;2023-06-04T06:27:14;102204.44;;;15.77;55.66
53647;BME280;39550;52.230;5.194;2023-06-04T06:29:43;102207.06;;;15.77;55.70
53647;BME280;39550;52.230;5.194;2023-06-04T06:32:10;102206.19;;;15.76;55.56
53647;BME280;39550;52.230;5.194;2023-06-04T06:34:35;102202.72;;;15.74;55.41
53647;BME280;39550;52.230;5.194;2023-06-04T06:37:02;102205.34;;;15.76;55.93
53647;BME280;39550;52.230;5.194;2023-06-04T06:39:27;102205.34;;;15.79;55.96
53647;BME280;39550;52.230;5.194;2023-06-04T06:41:53;102207.94;;;15.79;55.13
53647;BME280;39550;52.230;5.194;2023-06-04T06:44:18;102203.59;;;15.78;55.95
53647;BME280;39550;52.230;5.194;2023-06-04T06:46:44;102207.06;;;15.77;55.69
53647;BME280;39550;52.230;5.194;2023-06-04T06:49:09;102207.06;;;15.77;55.42
53647;BME280;39550;52.230;5.194;2023-06-04T06:51:35;102210.56;;;15.79;55.97
53647;BME280;39550;52.230;5.194;2023-06-04T06:54:00;102211.44;;;15.79;54.99
53647;BME280;39550;52.230;5.194;2023-06-04T06:56:25;102212.34;;;15.80;55.91
53647;BME280;39550;52.230;5.194;2023-06-04T06:58:51;102213.19;;;15.82;54.75
53647;BME280;39550;52.230;5.194;2023-06-04T07:01:16;102215.81;;;15.82;55.71
53647;BME280;39550;52.230;5.194;2023-06-04T07:03:42;102210.59;;;15.82;54.92
53647;BME280;39550;52.230;5.194;2023-06-04T07:06:07;102217.56;;;15.86;55.54
53647;BME280;39550;52.230;5.194;2023-06-04T07:08:33;102224.50;;;15.87;55.55
53647;BME280;39550;52.230;5.194;2023-06-04T07:11:02;102224.53;;;15.90;54.57
53647;BME280;39550;52.230;5.194;2023-06-04T07:13:28;102214.97;;;15.89;55.41
53647;BME280;39550;52.230;5.194;2023-06-04T07:15:54;102215.88;;;15.91;55.33
53647;BME280;39550;52.230;5.194;2023-06-04T07:18:19;102217.59;;;15.91;54.59
53647;BME280;39550;52.230;5.194;2023-06-04T07:20:45;102219.34;;;15.93;54.97
53647;BME280;39550;52.230;5.194;2023-06-04T07:23:10;102215.03;;;15.94;55.31
53647;BME280;39550;52.230;5.194;2023-06-04T07:25:35;102220.25;;;15.97;54.82
53647;BME280;39550;52.230;5.194;2023-06-04T07:28:01;102226.31;;;15.97;55.67
53647;BME280;39550;52.230;5.194;2023-06-04T07:30:32;102228.88;;;15.91;55.59
53647;BME280;39550;52.230;5.194;2023-06-04T07:32:57;102233.22;;;15.92;55.98
53647;BME280;39550;52.230;5.194;2023-06-04T07:35:23;102233.22;;;15.92;55.05
53647;BME280;39550;52.230;5.194;2023-06-04T07:37:49;102222.84;;;15.92;55.23
53647;BME280;39550;52.230;5.194;2023-06-04T07:40:15;102231.50;;;15.94;55.44
53647;BME280;39550;52.230;5.194;2023-06-04T07:42:42;102228.06;;;15.98;55.15
53647;BME280;39550;52.230;5.194;2023-06-04T07:45:08;102222.88;;;15.98;54.73
53647;BME280;39550;52.230;5.194;2023-06-04T07:47:35;102226.38;;;16.04;54.38
53647;BME280;39550;52.230;5.194;2023-06-04T07:50:01;102233.28;;;16.05;54.83
53647;BME280;39550;52.230;5.194;2023-06-04T07:52:26;102224.66;;;16.06;55.22
53647;BME280;39550;52.230;5.194;2023-06-04T07:54:51;102225.53;;;16.08;54.55
53647;BME280;39550;52.230;5.194;2023-06-04T07:57:17;102224.69;;;16.12;55.07
53647;BME280;39550;52.230;5.194;2023-06-04T07:59:42;102225.63;;;16.19;54.28
53647;BME280;39550;52.230;5.194;2023-06-04T08:02:07;102227.34;;;16.20;54.92
53647;BME280;39550;52.230;5.194;2023-06-04T08:04:33;102222.13;;;16.16;53.75
53647;BME280;39550;52.230;5.194;2023-06-04T08:06:58;102218.63;;;16.11;53.56
53647;BME280;39550;52.230;5.194;2023-06-04T08:09:23;102226.41;;;16.10;53.69
53647;BME280;39550;52.230;5.194;2023-06-04T08:11:49;102227.28;;;16.10;53.82
53647;BME280;39550;52.230;5.194;2023-06-04T08:14:14;102230.75;;;16.12;54.20
53647;BME280;39550;52.230;5.194;2023-06-04T08:16:40;102226.50;;;16.22;53.95
53647;BME280;39550;52.230;5.194;2023-06-04T08:19:06;102229.16;;;16.30;54.49
53647;BME280;39550;52.230;5.194;2023-06-04T08:21:32;102230.00;;;16.30;54.46
53647;BME280;39550;52.230;5.194;2023-06-04T08:23:58;102230.91;;;16.32;54.52
53647;BME280;39550;52.230;5.194;2023-06-04T08:26:24;102226.56;;;16.31;54.30
53647;BME280;39550;52.230;5.194;2023-06-04T08:28:50;102235.22;;;16.33;53.81
53647;BME280;39550;52.230;5.194;2023-06-04T08:31:16;102228.34;;;16.42;54.00
53647;BME280;39550;52.230;5.194;2023-06-04T08:33:42;102219.69;;;16.43;53.24
53647;BME280;39550;52.230;5.194;2023-06-04T08:36:07;102232.69;;;16.44;52.67
53647;BME280;39550;52.230;5.194;2023-06-04T08:38:33;102224.03;;;16.44;52.57
53647;BME280;39550;52.230;5.194;2023-06-04T08:41:09;102228.41;;;16.54;53.25
53647;BME280;39550;52.230;5.194;2023-06-04T08:43:38;102224.97;;;16.55;52.92
53647;BME280;39550;52.230;5.194;2023-06-04T08:46:05;102230.16;;;16.57;53.28
53647;BME280;39550;52.230;5.194;2023-06-04T08:48:34;102231.91;;;16.59;52.81
53647;BME280;39550;52.230;5.194;2023-06-04T08:51:02;102224.09;;;16.58;52.77
53647;BME280;39550;52.230;5.194;2023-06-04T08:53:29;102224.97;;;16.58;53.27
53647;BME280;39550;52.230;5.194;2023-06-04T08:55:56;102224.16;;;16.68;52.32
53647;BME280;39550;52.230;5.194;2023-06-04T08:58:23;102236.34;;;16.80;52.25
53647;BME280;39550;52.230;5.194;2023-06-04T09:00:49;102226.81;;;16.81;52.22
53647;BME280;39550;52.230;5.194;2023-06-04T09:03:15;102226.81;;;16.84;52.52
53647;BME280;39550;52.230;5.194;2023-06-04T09:05:42;102226.00;;;16.93;52.76
53647;BME280;39550;52.230;5.194;2023-06-04T09:08:13;102225.16;;;16.95;52.96
53647;BME280;39550;52.230;5.194;2023-06-04T09:10:40;102225.16;;;16.92;52.11
53647;BME280;39550;52.230;5.194;2023-06-04T09:13:06;102229.44;;;16.87;52.26
53647;BME280;39550;52.230;5.194;2023-06-04T09:15:33;102228.63;;;16.94;52.22
53647;BME280;39550;52.230;5.194;2023-06-04T09:18:01;102226.06;;;17.02;52.13
53647;BME280;39550;52.230;5.194;2023-06-04T09:20:27;102224.31;;;17.01;51.80
53647;BME280;39550;52.230;5.194;2023-06-04T09:22:53;102227.81;;;17.06;52.14
53647;BME280;39550;52.230;5.194;2023-06-04T09:25:26;102225.16;;;16.98;52.68
53647;BME280;39550;52.230;5.194;2023-06-04T09:27:52;102226.03;;;16.97;52.69
53647;BME280;39550;52.230;5.194;2023-06-04T09:30:18;102233.00;;;17.08;51.37
53647;BME280;39550;52.230;5.194;2023-06-04T09:32:44;102222.59;;;17.06;51.61
53647;BME280;39550;52.230;5.194;2023-06-04T09:35:16;102227.81;;;17.12;51.89
53647;BME280;39550;52.230;5.194;2023-06-04T09:37:51;102210.47;;;17.16;51.58
53647;BME280;39550;52.230;5.194;2023-06-04T09:40:17;102237.41;;;17.30;51.30
53647;BME280;39550;52.230;5.194;2023-06-04T09:45:08;102229.63;;;17.35;51.78
53647;BME280;39550;52.230;5.194;2023-06-04T09:47:43;102227.00;;;17.33;51.14
53647;BME280;39550;52.230;5.194;2023-06-04T09:50:12;102224.41;;;17.35;50.70
53647;BME280;39550;52.230;5.194;2023-06-04T09:52:38;102220.06;;;17.35;50.86
53647;BME280;39550;52.230;5.194;2023-06-04T09:55:17;102219.19;;;17.35;50.08
53647;BME280;39550;52.230;5.194;2023-06-04T09:57:47;102231.38;;;17.42;50.27
53647;BME280;39550;52.230;5.194;2023-06-04T10:00:16;102229.59;;;17.46;51.10
53647;BME280;39550;52.230;5.194;2023-06-04T10:02:44;102230.50;;;17.51;50.67
53647;BME280;39550;52.230;5.194;2023-06-04T10:05:14;102227.03;;;17.49;50.18
53647;BME280;39550;52.230;5.194;2023-06-04T10:07:43;102227.03;;;17.52;49.40
53647;BME280;39550;52.230;5.194;2023-06-04T10:10:25;102227.03;;;17.52;49.09
53647;BME280;39550;52.230;5.194;2023-06-04T10:12:56;102227.03;;;17.55;48.75
53647;BME280;39550;52.230;5.194;2023-06-04T10:15:25;102227.03;;;17.55;49.11
53647;BME280;39550;52.230;5.194;2023-06-04T10:17:51;102222.69;;;17.63;49.06
53647;BME280;39550;52.230;5.194;2023-06-04T10:20:18;102220.94;;;17.72;49.40
53647;BME280;39550;52.230;5.194;2023-06-04T10:22:45;102230.53;;;17.85;49.33
53647;BME280;39550;52.230;5.194;2023-06-04T10:25:12;102225.28;;;17.90;49.39
53647;BME280;39550;52.230;5.194;2023-06-04T10:27:38;102218.31;;;17.90;49.09
53647;BME280;39550;52.230;5.194;2023-06-04T10:30:04;102227.03;;;17.91;48.77
53647;BME280;39550;52.230;5.194;2023-06-04T10:32:30;102228.75;;;17.90;48.92
53647;BME280;39550;52.230;5.194;2023-06-04T10:34:56;102225.31;;;17.86;49.62
53647;BME280;39550;52.230;5.194;2023-06-04T10:37:27;102220.94;;;17.85;49.41
53647;BME280;39550;52.230;5.194;2023-06-04T10:39:57;102220.97;;;17.82;49.64
53647;BME280;39550;52.230;5.194;2023-06-04T10:42:23;102223.56;;;17.88;49.38
53647;BME280;39550;52.230;5.194;2023-06-04T10:44:50;102220.09;;;17.94;49.09
53647;BME280;39550;52.230;5.194;2023-06-04T10:47:25;102223.56;;;18.02;48.95
53647;BME280;39550;52.230;5.194;2023-06-04T10:49:53;102215.75;;;17.99;48.43
53647;BME280;39550;52.230;5.194;2023-06-04T10:52:19;102217.50;;;17.99;48.59
53647;BME280;39550;52.230;5.194;2023-06-04T10:54:45;102213.16;;;18.01;48.37
53647;BME280;39550;52.230;5.194;2023-06-04T10:57:16;102221.84;;;18.01;48.42
53647;BME280;39550;52.230;5.194;2023-06-04T10:59:53;102218.34;;;18.02;49.45
53647;BME280;39550;52.230;5.194;2023-06-04T11:02:19;102226.19;;;18.10;50.41
53647;BME280;39550;52.230;5.194;2023-06-04T11:04:44;102225.31;;;18.13;50.27
53647;BME280;39550;52.230;5.194;2023-06-04T11:07:10;102215.75;;;18.18;50.86
53647;BME280;39550;52.230;5.194;2023-06-04T11:09:36;102225.31;;;18.22;51.53
53647;BME280;39550;52.230;5.194;2023-06-04T11:12:04;102214.88;;;18.22;51.74
53647;BME280;39550;52.230;5.194;2023-06-04T11:14:30;102217.47;;;18.24;51.10
53647;BME280;39550;52.230;5.194;2023-06-04T11:16:56;102211.34;;;18.26;51.37
53647;BME280;39550;52.230;5.194;2023-06-04T11:19:21;102207.88;;;18.27;52.05
53647;BME280;39550;52.230;5.194;2023-06-04T11:21:47;102206.13;;;18.35;52.38
53647;BME280;39550;52.230;5.194;2023-06-04T11:24:13;102213.09;;;18.33;51.97
53647;BME280;39550;52.230;5.194;2023-06-04T11:26:39;102205.25;;;18.36;52.28
53647;BME280;39550;52.230;5.194;2023-06-04T11:29:10;102199.16;;;18.37;52.26
53647;BME280;39550;52.230;5.194;2023-06-04T11:31:44;102200.91;;;18.42;52.61
53647;BME280;39550;52.230;5.194;2023-06-04T11:34:22;102203.47;;;18.55;52.89
53647;BME280;39550;52.230;5.194;2023-06-04T11:36:47;102200.81;;;18.62;53.04
53647;BME280;39550;52.230;5.194;2023-06-04T11:39:15;102198.19;;;18.65;53.60
53647;BME280;39550;52.230;5.194;2023-06-04T11:41:41;102203.41;;;18.65;53.08
53647;BME280;39550;52.230;5.194;2023-06-04T11:44:07;102194.72;;;18.66;52.25
53647;BME280;39550;52.230;5.194;2023-06-04T11:46:34;102203.34;;;18.82;52.91
53647;BME280;39550;52.230;5.194;2023-06-04T11:49:02;102195.50;;;18.88;52.64
53647;BME280;39550;52.230;5.194;2023-06-04T11:51:27;102191.09;;;18.98;52.68
53647;BME280;39550;52.230;5.194;2023-06-04T11:53:53;102192.81;;;19.02;52.81
53647;BME280;39550;52.230;5.194;2023-06-04T11:56:20;102198.91;;;19.04;52.86
53647;BME280;39550;52.230;5.194;2023-06-04T11:58:46;102194.56;;;19.03;52.47
53647;BME280;39550;52.230;5.194;2023-06-04T12:01:12;102190.19;;;19.03;52.04
53647;BME280;39550;52.230;5.194;2023-06-04T12:03:39;102186.69;;;19.11;52.03
53647;BME280;39550;52.230;5.194;2023-06-04T12:06:16;102178.78;;;19.18;51.76
53647;BME280;39550;52.230;5.194;2023-06-04T12:08:52;102180.47;;;19.29;51.87
53647;BME280;39550;52.230;5.194;2023-06-04T12:11:29;102181.28;;;19.38;51.72
53647;BME280;39550;52.230;5.194;2023-06-04T12:14:07;102175.06;;;19.49;51.27
53647;BME280;39550;52.230;5.194;2023-06-04T12:16:35;102178.47;;;19.59;51.39
53647;BME280;39550;52.230;5.194;2023-06-04T12:19:08;102167.06;;;19.67;51.28
53647;BME280;39550;52.230;5.194;2023-06-04T12:21:34;102174.00;;;19.74;50.94
53647;BME280;39550;52.230;5.194;2023-06-04T12:24:10;102184.38;;;19.84;50.80
53647;BME280;39550;52.230;5.194;2023-06-04T12:26:37;102186.09;;;19.88;50.57
53647;BME280;39550;52.230;5.194;2023-06-04T12:29:13;102179.06;;;19.95;50.64
53647;BME280;39550;52.230;5.194;2023-06-04T12:31:40;102186.84;;;20.01;50.29
53647;BME280;39550;52.230;5.194;2023-06-04T12:34:05;102193.69;;;20.13;50.20
53647;BME280;39550;52.230;5.194;2023-06-04T12:36:31;102178.88;;;20.15;49.77
53647;BME280;39550;52.230;5.194;2023-06-04T12:38:59;102180.47;;;20.25;49.71
53647;BME280;39550;52.230;5.194;2023-06-04T12:41:28;102180.38;;;20.34;49.29
53647;BME280;39550;52.230;5.194;2023-06-04T12:43:54;102182.00;;;20.45;49.41
53647;BME280;39550;52.230;5.194;2023-06-04T12:46:20;102181.94;;;20.48;49.00
53647;BME280;39550;52.230;5.194;2023-06-04T12:48:45;102175.13;;;20.36;48.77
53647;BME280;39550;52.230;5.194;2023-06-04T12:51:11;102183.69;;;20.49;48.05
53647;BME280;39550;52.230;5.194;2023-06-04T12:53:39;102179.19;;;20.60;48.13